sensor_id;sensor_type;location;lat;lon;timestamp;temperature;humidity
18218;DHT22;9234;49.344;11.120;2022-12-11T00:01:13;0.40;99.90
18218;DHT22;9234;49.344;11.120;2022-12-11T00:03:44;0.40;99.90
18218;DHT22;9234;49.344;11.120;2022-12-11T00:06:14;0.40;99.90
18218;DHT22;9234;49.344;11.120;2022-12-11T00:08:44;0.40;99.90
18218;DHT22;9234;49.344;11.120;2022-12-11T00:11:16;0.40;99.90
18218;DHT22;9234;49.344;11.120;2022-12-11T00:13:44;0.40;99.90
18218;DHT22;9234;49.344;11.120;2022-12-11T00:16:15;0.40;99.90
18218;DHT22;9234;49.344;11.120;2022-12-11T00:18:48;0.40;99.90
18218;DHT22;9234;49.344;11.120;2022-12-11T00:21:16;0.40;99.90
18218;DHT22;9234;49.344;11.120;2022-12-11T00:23:44;0.40;99.90
18218;DHT22;9234;49.344;11.120;2022-12-11T00:26:14;0.40;99.90
18218;DHT22;9234;49.344;11.120;2022-12-11T00:28:43;0.40;99.90
18218;DHT22;9234;49.344;11.120;2022-12-11T00:31:14;0.40;99.90
18218;DHT22;9234;49.344;11.120;2022-12-11T00:33:44;0.50;99.90
18218;DHT22;9234;49.344;11.120;2022-12-11T00:36:16;0.50;99.90
18218;DHT22;9234;49.344;11.120;2022-12-11T00:38:46;0.50;99.90
18218;DHT22;9234;49.344;11.120;2022-12-11T00:41:16;0.50;99.90
18218;DHT22;9234;49.344;11.120;2022-12-11T00:43:45;0.50;99.90
18218;DHT22;9234;49.344;11.120;2022-12-11T00:46:13;0.50;99.90
18218;DHT22;9234;49.344;11.120;2022-12-11T00:48:41;0.50;99.90
18218;DHT22;9234;49.344;11.120;2022-12-11T00:51:10;0.50;99.90
18218;DHT22;9234;49.344;11.120;2022-12-11T00:53:38;0.50;99.90
18218;DHT22;9234;49.344;11.120;2022-12-11T00:56:10;0.50;99.90
18218;DHT22;9234;49.344;11.120;2022-12-11T00:58:41;0.50;99.90
18218;DHT22;9234;49.344;11.120;2022-12-11T01:01:12;0.60;99.90
18218;DHT22;9234;49.344;11.120;2022-12-11T01:03:41;0.50;99.90
18218;DHT22;9234;49.344;11.120;2022-12-11T01:06:13;0.50;99.90
18218;DHT22;9234;49.344;11.120;2022-12-11T01:08:43;0.50;99.90
18218;DHT22;9234;49.344;11.120;2022-12-11T01:11:14;0.50;99.90
18218;DHT22;9234;49.344;11.120;2022-12-11T01:13:44;0.50;99.90
18218;DHT22;9234;49.344;11.120;2022-12-11T01:16:14;0.50;99.90
18218;DHT22;9234;49.344;11.120;2022-12-11T01:18:42;0.50;99.90
18218;DHT22;9234;49.344;11.120;2022-12-11T01:21:12;0.50;99.90
18218;DHT22;9234;49.344;11.120;2022-12-11T01:23:40;0.50;99.90
18218;DHT22;9234;49.344;11.120;2022-12-11T01:26:12;0.50;99.90
18218;DHT22;9234;49.344;11.120;2022-12-11T01:28:42;0.50;99.90
18218;DHT22;9234;49.344;11.120;2022-12-11T01:31:13;0.50;99.90
18218;DHT22;9234;49.344;11.120;2022-12-11T01:33:43;0.50;99.90
18218;DHT22;9234;49.344;11.120;2022-12-11T01:36:14;0.50;99.90
18218;DHT22;9234;49.344;11.120;2022-12-11T01:38:43;0.50;99.90
18218;DHT22;9234;49.344;11.120;2022-12-11T01:41:12;0.50;99.90
18218;DHT22;9234;49.344;11.120;2022-12-11T01:44:00;0.50;99.90
18218;DHT22;9234;49.344;11.120;2022-12-11T01:46:32;0.40;99.90
18218;DHT22;9234;49.344;11.120;2022-12-11T01:49:03;0.50;99.90
18218;DHT22;9234;49.344;11.120;2022-12-11T01:51:37;0.40;99.90
18218;DHT22;9234;49.344;11.120;2022-12-11T01:54:11;0.50;99.90
18218;DHT22;9234;49.344;11.120;2022-12-11T01:56:43;0.50;99.90
18218;DHT22;9234;49.344;11.120;2022-12-11T01:59:17;0.50;99.90
18218;DHT22;9234;49.344;11.120;2022-12-11T02:01:53;0.40;99.90
18218;DHT22;9234;49.344;11.120;2022-12-11T02:04:24;0.40;99.90
18218;DHT22;9234;49.344;11.120;2022-12-11T02:06:53;0.40;99.90
18218;DHT22;9234;49.344;11.120;2022-12-11T02:09:24;0.40;99.90
18218;DHT22;9234;49.344;11.120;2022-12-11T02:12:00;0.40;99.90
18218;DHT22;9234;49.344;11.120;2022-12-11T02:14:37;0.40;99.90
18218;DHT22;9234;49.344;11.120;2022-12-11T02:17:12;0.40;99.90
18218;DHT22;9234;49.344;11.120;2022-12-11T02:19:52;0.30;99.90
18218;DHT22;9234;49.344;11.120;2022-12-11T02:22:41;0.30;99.90
18218;DHT22;9234;49.344;11.120;2022-12-11T02:25:23;0.30;99.90
18218;DHT22;9234;49.344;11.120;2022-12-11T02:28:08;0.30;99.90
18218;DHT22;9234;49.344;11.120;2022-12-11T02:30:47;0.30;99.90
18218;DHT22;9234;49.344;11.120;2022-12-11T02:33:25;0.30;99.90
18218;DHT22;9234;49.344;11.120;2022-12-11T02:36:00;0.30;99.90
18218;DHT22;9234;49.344;11.120;2022-12-11T02:38:33;0.30;99.90
18218;DHT22;9234;49.344;11.120;2022-12-11T02:41:06;0.30;99.90
18218;DHT22;9234;49.344;11.120;2022-12-11T02:43:40;0.30;99.90
18218;DHT22;9234;49.344;11.120;2022-12-11T02:46:11;0.30;99.90
18218;DHT22;9234;49.344;11.120;2022-12-11T02:48:42;0.30;99.90
18218;DHT22;9234;49.344;11.120;2022-12-11T02:51:15;0.30;99.90
18218;DHT22;9234;49.344;11.120;2022-12-11T02:53:45;0.20;99.90
18218;DHT22;9234;49.344;11.120;2022-12-11T02:56:17;0.20;99.90
18218;DHT22;9234;49.344;11.120;2022-12-11T02:58:54;0.20;99.90
18218;DHT22;9234;49.344;11.120;2022-12-11T03:01:26;0.20;99.90
18218;DHT22;9234;49.344;11.120;2022-12-11T03:03:55;0.20;99.90
18218;DHT22;9234;49.344;11.120;2022-12-11T03:06:30;0.10;99.90
18218;DHT22;9234;49.344;11.120;2022-12-11T03:09:04;0.10;99.90
18218;DHT22;9234;49.344;11.120;2022-12-11T03:11:32;0.00;99.90
18218;DHT22;9234;49.344;11.120;2022-12-11T03:14:01;0.00;99.90
18218;DHT22;9234;49.344;11.120;2022-12-11T03:16:33;0.00;99.90
18218;DHT22;9234;49.344;11.120;2022-12-11T03:19:10;0.00;99.90
18218;DHT22;9234;49.344;11.120;2022-12-11T03:21:49;0.00;99.90
18218;DHT22;9234;49.344;11.120;2022-12-11T03:24:27;0.00;99.90
18218;DHT22;9234;49.344;11.120;2022-12-11T03:27:03;0.10;99.90
18218;DHT22;9234;49.344;11.120;2022-12-11T03:29:40;0.10;99.90
18218;DHT22;9234;49.344;11.120;2022-12-11T03:32:18;0.10;99.90
18218;DHT22;9234;49.344;11.120;2022-12-11T03:34:53;0.10;99.90
18218;DHT22;9234;49.344;11.120;2022-12-11T03:37:30;0.10;99.90
18218;DHT22;9234;49.344;11.120;2022-12-11T03:40:04;0.10;99.90
18218;DHT22;9234;49.344;11.120;2022-12-11T03:42:38;0.10;99.90
18218;DHT22;9234;49.344;11.120;2022-12-11T03:45:10;0.10;99.90
18218;DHT22;9234;49.344;11.120;2022-12-11T03:47:42;0.10;99.90
18218;DHT22;9234;49.344;11.120;2022-12-11T03:50:13;0.00;99.90
18218;DHT22;9234;49.344;11.120;2022-12-11T03:52:47;0.00;99.90
18218;DHT22;9234;49.344;11.120;2022-12-11T03:55:18;-0.10;99.90
18218;DHT22;9234;49.344;11.120;2022-12-11T03:57:48;-0.10;99.90
18218;DHT22;9234;49.344;11.120;2022-12-11T04:00:20;-0.10;99.90
18218;DHT22;9234;49.344;11.120;2022-12-11T04:02:49;-0.20;99.90
18218;DHT22;9234;49.344;11.120;2022-12-11T04:05:39;-0.20;99.90
18218;DHT22;9234;49.344;11.120;2022-12-11T04:08:08;-0.30;99.90
18218;DHT22;9234;49.344;11.120;2022-12-11T04:10:36;-0.30;99.90
18218;DHT22;9234;49.344;11.120;2022-12-11T04:13:04;-0.40;99.90
18218;DHT22;9234;49.344;11.120;2022-12-11T04:15:34;-0.40;99.90
18218;DHT22;9234;49.344;11.120;2022-12-11T04:18:02;-0.40;99.90
18218;DHT22;9234;49.344;11.120;2022-12-11T04:20:48;-0.40;99.90
18218;DHT22;9234;49.344;11.120;2022-12-11T04:23:37;-0.50;99.90
18218;DHT22;9234;49.344;11.120;2022-12-11T04:26:22;-0.60;99.90
18218;DHT22;9234;49.344;11.120;2022-12-11T04:28:51;-0.60;99.90
18218;DHT22;9234;49.344;11.120;2022-12-11T04:31:21;-0.70;99.90
18218;DHT22;9234;49.344;11.120;2022-12-11T04:33:49;-0.80;99.90
18218;DHT22;9234;49.344;11.120;2022-12-11T04:36:18;-0.80;99.90
18218;DHT22;9234;49.344;11.120;2022-12-11T04:38:47;-0.80;99.90
18218;DHT22;9234;49.344;11.120;2022-12-11T04:41:15;-0.80;99.90
18218;DHT22;9234;49.344;11.120;2022-12-11T04:43:44;-0.80;99.90
18218;DHT22;9234;49.344;11.120;2022-12-11T04:46:14;-0.80;99.90
18218;DHT22;9234;49.344;11.120;2022-12-11T04:48:46;-0.90;99.90
18218;DHT22;9234;49.344;11.120;2022-12-11T04:51:23;-0.90;99.90
18218;DHT22;9234;49.344;11.120;2022-12-11T04:53:51;-0.90;99.90
18218;DHT22;9234;49.344;11.120;2022-12-11T04:56:20;-0.90;99.90
18218;DHT22;9234;49.344;11.120;2022-12-11T04:58:48;-0.90;99.90
18218;DHT22;9234;49.344;11.120;2022-12-11T05:01:18;-0.90;99.90
18218;DHT22;9234;49.344;11.120;2022-12-11T05:03:49;-0.90;99.90
18218;DHT22;9234;49.344;11.120;2022-12-11T05:06:17;-0.90;99.90
18218;DHT22;9234;49.344;11.120;2022-12-11T05:08:45;-1.00;99.90
18218;DHT22;9234;49.344;11.120;2022-12-11T05:11:14;-1.00;99.90
18218;DHT22;9234;49.344;11.120;2022-12-11T05:13:43;-1.10;99.90
18218;DHT22;9234;49.344;11.120;2022-12-11T05:16:14;-1.20;99.90
18218;DHT22;9234;49.344;11.120;2022-12-11T05:18:43;-1.20;99.90
18218;DHT22;9234;49.344;11.120;2022-12-11T05:21:14;-1.20;99.90
18218;DHT22;9234;49.344;11.120;2022-12-11T05:23:43;-1.30;99.90
18218;DHT22;9234;49.344;11.120;2022-12-11T05:26:13;-1.30;99.90
18218;DHT22;9234;49.344;11.120;2022-12-11T05:28:43;-1.30;99.90
18218;DHT22;9234;49.344;11.120;2022-12-11T05:31:13;-1.40;99.90
18218;DHT22;9234;49.344;11.120;2022-12-11T05:33:44;-1.40;99.90
18218;DHT22;9234;49.344;11.120;2022-12-11T05:36:17;-1.40;99.90
18218;DHT22;9234;49.344;11.120;2022-12-11T05:38:47;-1.50;99.90
18218;DHT22;9234;49.344;11.120;2022-12-11T05:41:17;-1.50;99.90
18218;DHT22;9234;49.344;11.120;2022-12-11T05:43:47;-1.60;99.90
18218;DHT22;9234;49.344;11.120;2022-12-11T05:46:17;-1.60;99.90
18218;DHT22;9234;49.344;11.120;2022-12-11T05:48:48;-1.70;99.90
18218;DHT22;9234;49.344;11.120;2022-12-11T05:51:19;-1.80;99.90
18218;DHT22;9234;49.344;11.120;2022-12-11T05:53:49;-1.80;99.90
18218;DHT22;9234;49.344;11.120;2022-12-11T05:56:20;-1.90;99.90
18218;DHT22;9234;49.344;11.120;2022-12-11T05:58:51;-2.00;99.90
18218;DHT22;9234;49.344;11.120;2022-12-11T06:01:21;-2.00;99.90
18218;DHT22;9234;49.344;11.120;2022-12-11T06:03:52;-2.10;99.90
18218;DHT22;9234;49.344;11.120;2022-12-11T06:06:22;-2.10;99.90
18218;DHT22;9234;49.344;11.120;2022-12-11T06:08:52;-2.20;99.90
18218;DHT22;9234;49.344;11.120;2022-12-11T06:11:23;-2.20;99.90
18218;DHT22;9234;49.344;11.120;2022-12-11T06:13:53;-2.30;99.90
18218;DHT22;9234;49.344;11.120;2022-12-11T06:16:22;-2.30;99.90
18218;DHT22;9234;49.344;11.120;2022-12-11T06:18:51;-2.40;99.90
18218;DHT22;9234;49.344;11.120;2022-12-11T06:21:26;-2.40;99.90
18218;DHT22;9234;49.344;11.120;2022-12-11T06:23:57;-2.50;99.90
18218;DHT22;9234;49.344;11.120;2022-12-11T06:26:27;-2.50;99.90
18218;DHT22;9234;49.344;11.120;2022-12-11T06:28:55;-2.60;99.90
18218;DHT22;9234;49.344;11.120;2022-12-11T06:31:23;-2.60;99.90
18218;DHT22;9234;49.344;11.120;2022-12-11T06:33:51;-2.70;99.90
18218;DHT22;9234;49.344;11.120;2022-12-11T06:36:21;-2.70;99.90
18218;DHT22;9234;49.344;11.120;2022-12-11T06:38:52;-2.80;99.90
18218;DHT22;9234;49.344;11.120;2022-12-11T06:41:22;-2.90;99.90
18218;DHT22;9234;49.344;11.120;2022-12-11T06:43:50;-2.90;99.90
18218;DHT22;9234;49.344;11.120;2022-12-11T06:46:19;-3.00;99.90
18218;DHT22;9234;49.344;11.120;2022-12-11T06:48:48;-3.10;99.90
18218;DHT22;9234;49.344;11.120;2022-12-11T06:51:18;-3.10;99.90
18218;DHT22;9234;49.344;11.120;2022-12-11T06:53:50;-3.20;99.90
18218;DHT22;9234;49.344;11.120;2022-12-11T06:56:21;-3.30;99.90
18218;DHT22;9234;49.344;11.120;2022-12-11T06:58:50;-3.30;99.90
18218;DHT22;9234;49.344;11.120;2022-12-11T07:01:21;-3.40;99.90
18218;DHT22;9234;49.344;11.120;2022-12-11T07:03:52;-3.40;99.90
18218;DHT22;9234;49.344;11.120;2022-12-11T07:06:21;-3.50;99.90
18218;DHT22;9234;49.344;11.120;2022-12-11T07:08:51;-3.50;99.90
18218;DHT22;9234;49.344;11.120;2022-12-11T07:11:20;-3.50;99.90
18218;DHT22;9234;49.344;11.120;2022-12-11T07:13:49;-3.60;99.90
18218;DHT22;9234;49.344;11.120;2022-12-11T07:16:17;-3.60;99.90
18218;DHT22;9234;49.344;11.120;2022-12-11T07:18:47;-3.60;99.90
18218;DHT22;9234;49.344;11.120;2022-12-11T07:21:17;-3.60;99.90
18218;DHT22;9234;49.344;11.120;2022-12-11T07:23:47;-3.60;99.90
18218;DHT22;9234;49.344;11.120;2022-12-11T07:26:19;-3.60;99.90
18218;DHT22;9234;49.344;11.120;2022-12-11T07:28:48;-3.70;99.90
18218;DHT22;9234;49.344;11.120;2022-12-11T07:31:18;-3.70;99.90
18218;DHT22;9234;49.344;11.120;2022-12-11T07:33:52;-3.70;99.90
18218;DHT22;9234;49.344;11.120;2022-12-11T07:36:21;-3.70;99.90
18218;DHT22;9234;49.344;11.120;2022-12-11T07:38:50;-3.70;99.90
18218;DHT22;9234;49.344;11.120;2022-12-11T07:41:20;-3.70;99.90
18218;DHT22;9234;49.344;11.120;2022-12-11T07:43:53;-3.70;99.90
18218;DHT22;9234;49.344;11.120;2022-12-11T07:46:23;-3.70;99.90
18218;DHT22;9234;49.344;11.120;2022-12-11T07:48:54;-3.70;99.90
18218;DHT22;9234;49.344;11.120;2022-12-11T07:51:24;-3.70;99.90
18218;DHT22;9234;49.344;11.120;2022-12-11T07:53:56;-3.70;99.90
18218;DHT22;9234;49.344;11.120;2022-12-11T07:56:28;-3.70;99.90
18218;DHT22;9234;49.344;11.120;2022-12-11T07:58:57;-3.60;99.90
18218;DHT22;9234;49.344;11.120;2022-12-11T08:01:28;-3.60;99.90
18218;DHT22;9234;49.344;11.120;2022-12-11T08:03:57;-3.50;99.90
18218;DHT22;9234;49.344;11.120;2022-12-11T08:06:27;-3.40;99.90
18218;DHT22;9234;49.344;11.120;2022-12-11T08:08:57;-3.30;99.90
18218;DHT22;9234;49.344;11.120;2022-12-11T08:11:29;-3.20;99.90
18218;DHT22;9234;49.344;11.120;2022-12-11T08:13:57;-3.00;99.90
18218;DHT22;9234;49.344;11.120;2022-12-11T08:16:26;-2.80;99.90
18218;DHT22;9234;49.344;11.120;2022-12-11T08:18:55;-2.70;99.90
18218;DHT22;9234;49.344;11.120;2022-12-11T08:21:26;-2.50;99.90
18218;DHT22;9234;49.344;11.120;2022-12-11T08:23:55;-2.40;99.90
18218;DHT22;9234;49.344;11.120;2022-12-11T08:26:25;-2.30;99.90
18218;DHT22;9234;49.344;11.120;2022-12-11T08:28:56;-2.20;99.90
18218;DHT22;9234;49.344;11.120;2022-12-11T08:31:25;-2.20;99.90
18218;DHT22;9234;49.344;11.120;2022-12-11T08:33:54;-2.10;99.90
18218;DHT22;9234;49.344;11.120;2022-12-11T08:36:24;-2.10;99.90
18218;DHT22;9234;49.344;11.120;2022-12-11T08:38:53;-2.00;99.90
18218;DHT22;9234;49.344;11.120;2022-12-11T08:41:24;-1.90;99.90
18218;DHT22;9234;49.344;11.120;2022-12-11T08:43:55;-1.80;99.90
18218;DHT22;9234;49.344;11.120;2022-12-11T08:46:28;-1.60;99.90
18218;DHT22;9234;49.344;11.120;2022-12-11T08:48:58;-1.40;99.90
18218;DHT22;9234;49.344;11.120;2022-12-11T08:51:28;-1.20;99.90
18218;DHT22;9234;49.344;11.120;2022-12-11T08:53:59;-1.00;99.90
18218;DHT22;9234;49.344;11.120;2022-12-11T08:56:28;-0.80;99.90
18218;DHT22;9234;49.344;11.120;2022-12-11T08:59:00;-0.60;99.90
18218;DHT22;9234;49.344;11.120;2022-12-11T09:01:29;-0.40;99.90
18218;DHT22;9234;49.344;11.120;2022-12-11T09:03:58;-0.40;99.90
18218;DHT22;9234;49.344;11.120;2022-12-11T09:06:28;-0.30;99.90
18218;DHT22;9234;49.344;11.120;2022-12-11T09:09:00;-0.20;99.90
18218;DHT22;9234;49.344;11.120;2022-12-11T09:11:31;-0.10;99.90
18218;DHT22;9234;49.344;11.120;2022-12-11T09:14:02;0.00;99.90
18218;DHT22;9234;49.344;11.120;2022-12-11T09:16:34;0.10;99.90
18218;DHT22;9234;49.344;11.120;2022-12-11T09:19:07;0.10;99.90
18218;DHT22;9234;49.344;11.120;2022-12-11T09:21:37;0.20;99.90
18218;DHT22;9234;49.344;11.120;2022-12-11T09:24:07;0.30;99.90
18218;DHT22;9234;49.344;11.120;2022-12-11T09:26:37;0.30;99.90
18218;DHT22;9234;49.344;11.120;2022-12-11T09:29:11;0.30;99.90
18218;DHT22;9234;49.344;11.120;2022-12-11T09:31:40;0.40;99.90
18218;DHT22;9234;49.344;11.120;2022-12-11T09:34:11;0.40;99.90
18218;DHT22;9234;49.344;11.120;2022-12-11T09:36:41;0.40;99.90
18218;DHT22;9234;49.344;11.120;2022-12-11T09:39:11;0.50;99.90
18218;DHT22;9234;49.344;11.120;2022-12-11T09:41:47;0.60;99.90
18218;DHT22;9234;49.344;11.120;2022-12-11T09:44:30;0.60;99.90
18218;DHT22;9234;49.344;11.120;2022-12-11T09:47:02;0.70;99.90
18218;DHT22;9234;49.344;11.120;2022-12-11T09:49:42;0.90;99.90
18218;DHT22;9234;49.344;11.120;2022-12-11T09:52:17;1.00;99.90
18218;DHT22;9234;49.344;11.120;2022-12-11T09:54:49;1.00;99.90
18218;DHT22;9234;49.344;11.120;2022-12-11T09:57:41;1.10;99.90
18218;DHT22;9234;49.344;11.120;2022-12-11T10:00:25;1.10;99.90
18218;DHT22;9234;49.344;11.120;2022-12-11T10:03:26;1.20;99.90
18218;DHT22;9234;49.344;11.120;2022-12-11T10:06:17;1.30;99.90
18218;DHT22;9234;49.344;11.120;2022-12-11T10:08:58;1.40;99.90
18218;DHT22;9234;49.344;11.120;2022-12-11T10:11:42;1.40;99.90
18218;DHT22;9234;49.344;11.120;2022-12-11T10:14:27;1.50;99.90
18218;DHT22;9234;49.344;11.120;2022-12-11T10:17:12;1.50;99.90
18218;DHT22;9234;49.344;11.120;2022-12-11T10:19:44;1.60;99.90
18218;DHT22;9234;49.344;11.120;2022-12-11T10:22:17;1.60;99.90
18218;DHT22;9234;49.344;11.120;2022-12-11T10:24:53;1.60;99.90
18218;DHT22;9234;49.344;11.120;2022-12-11T10:27:39;1.60;99.90
18218;DHT22;9234;49.344;11.120;2022-12-11T10:30:14;1.60;99.90
18218;DHT22;9234;49.344;11.120;2022-12-11T10:32:50;1.70;99.90
18218;DHT22;9234;49.344;11.120;2022-12-11T10:35:32;1.70;99.90
18218;DHT22;9234;49.344;11.120;2022-12-11T10:38:13;1.80;99.90
18218;DHT22;9234;49.344;11.120;2022-12-11T10:40:45;2.00;99.90
18218;DHT22;9234;49.344;11.120;2022-12-11T10:43:16;2.10;99.90
18218;DHT22;9234;49.344;11.120;2022-12-11T10:45:51;2.20;99.90
18218;DHT22;9234;49.344;11.120;2022-12-11T10:48:22;2.30;99.90
18218;DHT22;9234;49.344;11.120;2022-12-11T10:50:57;2.30;99.90
18218;DHT22;9234;49.344;11.120;2022-12-11T10:53:28;2.30;99.90
18218;DHT22;9234;49.344;11.120;2022-12-11T10:55:57;2.30;99.90
18218;DHT22;9234;49.344;11.120;2022-12-11T10:58:28;2.30;99.90
18218;DHT22;9234;49.344;11.120;2022-12-11T11:01:06;2.30;99.90
18218;DHT22;9234;49.344;11.120;2022-12-11T11:03:50;2.20;99.90
18218;DHT22;9234;49.344;11.120;2022-12-11T11:06:22;2.10;99.90
18218;DHT22;9234;49.344;11.120;2022-12-11T11:08:53;2.10;99.90
18218;DHT22;9234;49.344;11.120;2022-12-11T11:11:26;2.10;99.90
18218;DHT22;9234;49.344;11.120;2022-12-11T11:14:09;2.00;99.90
18218;DHT22;9234;49.344;11.120;2022-12-11T11:16:43;2.00;99.90
18218;DHT22;9234;49.344;11.120;2022-12-11T11:19:21;2.00;99.90
18218;DHT22;9234;49.344;11.120;2022-12-11T11:21:53;2.10;99.90
18218;DHT22;9234;49.344;11.120;2022-12-11T11:24:32;2.10;99.90
18218;DHT22;9234;49.344;11.120;2022-12-11T11:27:11;2.10;99.90
18218;DHT22;9234;49.344;11.120;2022-12-11T11:29:41;2.20;99.90
18218;DHT22;9234;49.344;11.120;2022-12-11T11:32:21;2.30;99.90
18218;DHT22;9234;49.344;11.120;2022-12-11T11:34:52;2.40;99.90
18218;DHT22;9234;49.344;11.120;2022-12-11T11:37:24;2.40;99.90
18218;DHT22;9234;49.344;11.120;2022-12-11T11:40:02;2.30;99.90
18218;DHT22;9234;49.344;11.120;2022-12-11T11:42:42;2.20;99.90
18218;DHT22;9234;49.344;11.120;2022-12-11T11:45:18;2.20;99.90
18218;DHT22;9234;49.344;11.120;2022-12-11T11:47:57;2.20;99.90
18218;DHT22;9234;49.344;11.120;2022-12-11T11:50:44;2.30;99.90
18218;DHT22;9234;49.344;11.120;2022-12-11T11:53:19;2.40;99.90
18218;DHT22;9234;49.344;11.120;2022-12-11T11:56:01;2.40;99.90
18218;DHT22;9234;49.344;11.120;2022-12-11T11:58:39;2.40;99.90
18218;DHT22;9234;49.344;11.120;2022-12-11T12:01:13;2.20;99.90
18218;DHT22;9234;49.344;11.120;2022-12-11T12:03:44;2.10;99.90
18218;DHT22;9234;49.344;11.120;2022-12-11T12:06:26;2.10;99.90
18218;DHT22;9234;49.344;11.120;2022-12-11T12:09:09;2.10;99.90
18218;DHT22;9234;49.344;11.120;2022-12-11T12:11:51;2.10;99.90
18218;DHT22;9234;49.344;11.120;2022-12-11T12:14:30;2.00;99.90
18218;DHT22;9234;49.344;11.120;2022-12-11T12:17:25;2.00;99.90
18218;DHT22;9234;49.344;11.120;2022-12-11T12:20:11;1.90;99.90
18218;DHT22;9234;49.344;11.120;2022-12-11T12:22:56;1.80;99.90
18218;DHT22;9234;49.344;11.120;2022-12-11T12:25:39;1.80;99.90
18218;DHT22;9234;49.344;11.120;2022-12-11T12:28:21;1.90;99.90
18218;DHT22;9234;49.344;11.120;2022-12-11T12:31:08;1.90;99.90
18218;DHT22;9234;49.344;11.120;2022-12-11T12:33:52;2.00;99.90
18218;DHT22;9234;49.344;11.120;2022-12-11T12:36:34;2.10;99.90
18218;DHT22;9234;49.344;11.120;2022-12-11T12:39:17;2.00;99.90
18218;DHT22;9234;49.344;11.120;2022-12-11T12:41:56;2.00;99.90
18218;DHT22;9234;49.344;11.120;2022-12-11T12:44:39;1.90;99.90
18218;DHT22;9234;49.344;11.120;2022-12-11T12:47:16;1.80;99.90
18218;DHT22;9234;49.344;11.120;2022-12-11T12:49:48;1.70;99.90
18218;DHT22;9234;49.344;11.120;2022-12-11T12:52:20;1.70;99.90
18218;DHT22;9234;49.344;11.120;2022-12-11T12:54:58;1.70;99.90
18218;DHT22;9234;49.344;11.120;2022-12-11T12:57:46;1.70;99.90
18218;DHT22;9234;49.344;11.120;2022-12-11T13:00:28;1.70;99.90
18218;DHT22;9234;49.344;11.120;2022-12-11T13:03:02;1.60;99.90
18218;DHT22;9234;49.344;11.120;2022-12-11T13:05:42;1.60;99.90
18218;DHT22;9234;49.344;11.120;2022-12-11T13:08:12;1.50;99.90
18218;DHT22;9234;49.344;11.120;2022-12-11T13:11:00;1.40;99.90
18218;DHT22;9234;49.344;11.120;2022-12-11T13:13:37;1.40;99.90
18218;DHT22;9234;49.344;11.120;2022-12-11T13:16:24;1.40;99.90
18218;DHT22;9234;49.344;11.120;2022-12-11T13:18:54;1.30;99.90
18218;DHT22;9234;49.344;11.120;2022-12-11T13:21:29;1.40;99.90
18218;DHT22;9234;49.344;11.120;2022-12-11T13:24:16;1.30;99.90
18218;DHT22;9234;49.344;11.120;2022-12-11T13:26:54;1.30;99.90
18218;DHT22;9234;49.344;11.120;2022-12-11T13:29:30;1.30;99.90
18218;DHT22;9234;49.344;11.120;2022-12-11T13:32:01;1.20;99.90
18218;DHT22;9234;49.344;11.120;2022-12-11T13:34:34;1.20;99.90
18218;DHT22;9234;49.344;11.120;2022-12-11T13:37:16;1.20;99.90
18218;DHT22;9234;49.344;11.120;2022-12-11T13:39:51;1.10;99.90
18218;DHT22;9234;49.344;11.120;2022-12-11T13:42:23;1.00;99.90
18218;DHT22;9234;49.344;11.120;2022-12-11T13:44:56;1.00;99.90
18218;DHT22;9234;49.344;11.120;2022-12-11T13:47:26;0.90;99.90
18218;DHT22;9234;49.344;11.120;2022-12-11T13:50:16;0.90;99.90
18218;DHT22;9234;49.344;11.120;2022-12-11T13:52:52;0.90;99.90
18218;DHT22;9234;49.344;11.120;2022-12-11T13:55:23;0.90;99.90
18218;DHT22;9234;49.344;11.120;2022-12-11T13:57:55;0.90;99.90
18218;DHT22;9234;49.344;11.120;2022-12-11T14:00:25;0.90;99.90
18218;DHT22;9234;49.344;11.120;2022-12-11T14:02:57;1.00;99.90
18218;DHT22;9234;49.344;11.120;2022-12-11T14:05:28;0.90;99.90
18218;DHT22;9234;49.344;11.120;2022-12-11T14:07:58;0.90;99.90
18218;DHT22;9234;49.344;11.120;2022-12-11T14:10:33;0.90;99.90
18218;DHT22;9234;49.344;11.120;2022-12-11T14:13:05;0.80;99.90
18218;DHT22;9234;49.344;11.120;2022-12-11T14:15:44;0.80;99.90
18218;DHT22;9234;49.344;11.120;2022-12-11T14:18:14;0.70;99.90
18218;DHT22;9234;49.344;11.120;2022-12-11T14:20:52;0.70;99.90
18218;DHT22;9234;49.344;11.120;2022-12-11T14:23:24;0.70;99.90
18218;DHT22;9234;49.344;11.120;2022-12-11T14:25:54;0.60;99.90
18218;DHT22;9234;49.344;11.120;2022-12-11T14:28:28;0.60;99.90
18218;DHT22;9234;49.344;11.120;2022-12-11T14:31:04;0.60;99.90
18218;DHT22;9234;49.344;11.120;2022-12-11T14:33:37;0.60;99.90
18218;DHT22;9234;49.344;11.120;2022-12-11T14:36:10;0.50;99.90
18218;DHT22;9234;49.344;11.120;2022-12-11T14:38:42;0.50;99.90
18218;DHT22;9234;49.344;11.120;2022-12-11T14:41:17;0.40;99.90
18218;DHT22;9234;49.344;11.120;2022-12-11T14:43:53;0.40;99.90
18218;DHT22;9234;49.344;11.120;2022-12-11T14:46:29;0.30;99.90
18218;DHT22;9234;49.344;11.120;2022-12-11T14:49:07;0.20;99.90
18218;DHT22;9234;49.344;11.120;2022-12-11T14:51:41;0.10;99.90
18218;DHT22;9234;49.344;11.120;2022-12-11T14:54:16;0.00;99.90
18218;DHT22;9234;49.344;11.120;2022-12-11T14:56:48;0.00;99.90
18218;DHT22;9234;49.344;11.120;2022-12-11T14:59:20;-0.20;99.90
18218;DHT22;9234;49.344;11.120;2022-12-11T15:01:59;-0.20;99.90
18218;DHT22;9234;49.344;11.120;2022-12-11T15:04:30;-0.30;99.90
18218;DHT22;9234;49.344;11.120;2022-12-11T15:06:59;-0.40;99.90
18218;DHT22;9234;49.344;11.120;2022-12-11T15:09:33;-0.50;99.90
18218;DHT22;9234;49.344;11.120;2022-12-11T15:12:09;-0.50;99.90
18218;DHT22;9234;49.344;11.120;2022-12-11T15:14:47;-0.60;99.90
18218;DHT22;9234;49.344;11.120;2022-12-11T15:17:18;-0.60;99.90
18218;DHT22;9234;49.344;11.120;2022-12-11T15:19:49;-0.70;99.90
18218;DHT22;9234;49.344;11.120;2022-12-11T15:22:21;-0.70;99.90
18218;DHT22;9234;49.344;11.120;2022-12-11T15:24:53;-0.80;99.90
18218;DHT22;9234;49.344;11.120;2022-12-11T15:27:29;-0.80;99.90
18218;DHT22;9234;49.344;11.120;2022-12-11T15:30:14;-0.80;99.90
18218;DHT22;9234;49.344;11.120;2022-12-11T15:33:16;-0.80;99.90
18218;DHT22;9234;49.344;11.120;2022-12-11T15:36:00;-0.90;99.90
18218;DHT22;9234;49.344;11.120;2022-12-11T15:38:34;-0.90;99.90
18218;DHT22;9234;49.344;11.120;2022-12-11T15:41:11;-0.90;99.90
18218;DHT22;9234;49.344;11.120;2022-12-11T15:43:41;-0.90;99.90
18218;DHT22;9234;49.344;11.120;2022-12-11T15:46:12;-0.90;99.90
18218;DHT22;9234;49.344;11.120;2022-12-11T15:48:41;-0.90;99.90
18218;DHT22;9234;49.344;11.120;2022-12-11T15:51:09;-0.90;99.90
18218;DHT22;9234;49.344;11.120;2022-12-11T15:53:37;-0.90;99.90
18218;DHT22;9234;49.344;11.120;2022-12-11T15:56:06;-0.90;99.90
18218;DHT22;9234;49.344;11.120;2022-12-11T15:58:39;-0.90;99.90
18218;DHT22;9234;49.344;11.120;2022-12-11T16:01:08;-0.90;99.90
18218;DHT22;9234;49.344;11.120;2022-12-11T16:03:37;-0.90;99.90
18218;DHT22;9234;49.344;11.120;2022-12-11T16:06:08;-0.90;99.90
18218;DHT22;9234;49.344;11.120;2022-12-11T16:08:38;-0.90;99.90
18218;DHT22;9234;49.344;11.120;2022-12-11T16:11:08;-0.90;99.90
18218;DHT22;9234;49.344;11.120;2022-12-11T16:13:40;-0.90;99.90
18218;DHT22;9234;49.344;11.120;2022-12-11T16:16:09;-0.90;99.90
18218;DHT22;9234;49.344;11.120;2022-12-11T16:18:39;-0.90;99.90